Terminal Aerodrome Forecast
Issued by NWS Grand Rapids, MI

Home | Current Version | Previous Version | Text Only | Print | Product List | Glossary On
Versions: 1 2 3 4 5 6 7 8 9 10 11 12 13 14 15 16 17 18 19 20 21 22 23 24
000
FTUS43 KGRR 201700 RRA
TAFGRR
TAF
KGRR 201745Z 2018/2118 15004KT P6SM SCT030 OVC100
     FM202300 VRB04KT 6SM BR OVC025
     FM210400 19003KT 4SM BR OVC015=

USA.gov is the U.S. government's official web portal to all federal, state and local government web resources and services.